Time;durP1;ratioP1;P1;durP2;ratioP2;P2;SDS_P1;SDS_P2;PMS_P1;PMS_P2;Temp;Humidity;BMP_temperature;BMP_pressure;BME280_temperature;BME280_humidity;BME280_pressure;Samples;Min_cycle;Max_cycle;Signal;HPM_P1;HPM_P2
2023/01/04 00:01:01;;;;;;;12.00;8.07;;;;;;;9.80;100.00;95405.56;5052382;28;20686;-57
2023/01/04 00:03:27;;;;;;;10.60;7.20;;;;;;;9.75;100.00;95389.84;5051967;28;20308;-57
2023/01/04 00:05:52;;;;;;;11.73;7.67;;;;;;;9.77;100.00;95395.63;5052364;28;20750;-57
2023/01/04 00:08:18;;;;;;;12.03;8.17;;;;;;;9.76;100.00;95394.00;5052031;28;20270;-58
2023/01/04 00:10:43;;;;;;;11.80;8.03;;;;;;;9.80;100.00;95387.78;5051922;28;20228;-58
2023/01/04 00:13:08;;;;;;;12.33;7.47;;;;;;;9.78;100.00;95391.34;5051986;28;20225;-54
2023/01/04 00:15:34;;;;;;;12.23;8.47;;;;;;;9.76;100.00;95395.72;5051924;28;20224;-53
2023/01/04 00:17:59;;;;;;;11.17;8.00;;;;;;;9.74;100.00;95384.84;5052038;28;20644;-57
2023/01/04 00:20:25;;;;;;;11.47;7.73;;;;;;;9.70;100.00;95384.25;5052235;28;20639;-58
2023/01/04 00:22:50;;;;;;;11.47;8.03;;;;;;;9.80;100.00;95403.00;5051789;28;20603;-57
2023/01/04 00:25:16;;;;;;;11.27;7.53;;;;;;;9.75;100.00;95389.84;5051786;28;20256;-57
2023/01/04 00:27:41;;;;;;;10.10;7.07;;;;;;;9.71;100.00;95403.66;5051847;28;20300;-56
2023/01/04 00:30:08;;;;;;;12.43;7.40;;;;;;;9.77;100.00;95405.78;5051686;28;20244;-56
2023/01/04 00:32:33;;;;;;;10.63;7.70;;;;;;;9.76;100.00;95403.34;5051808;28;20621;-57
2023/01/04 00:34:59;;;;;;;12.33;7.60;;;;;;;9.77;100.00;95402.44;5051950;28;20213;-53
2023/01/04 00:37:24;;;;;;;11.20;6.53;;;;;;;9.77;100.00;95402.44;5051472;28;20239;-54
2023/01/04 00:39:49;;;;;;;9.13;6.77;;;;;;;9.69;100.00;95397.88;5051785;28;20216;-52
2023/01/04 00:42:15;;;;;;;11.90;7.90;;;;;;;9.66;100.00;95403.16;5051438;28;20200;-54
2023/01/04 00:44:40;;;;;;;14.20;6.60;;;;;;;9.70;100.00;95401.22;5051775;28;20215;-54
2023/01/04 00:47:06;;;;;;;9.60;6.40;;;;;;;9.68;100.00;95403.06;5051468;28;20225;-53
2023/01/04 00:49:32;;;;;;;10.20;6.23;;;;;;;9.64;100.00;95409.25;5051427;28;20675;-56
2023/01/04 00:51:58;;;;;;;10.93;6.97;;;;;;;9.64;100.00;95409.25;5051290;28;20193;-55
2023/01/04 00:54:24;;;;;;;11.97;7.37;;;;;;;9.62;100.00;95411.91;5051292;28;20214;-54
2023/01/04 00:56:49;;;;;;;10.87;6.50;;;;;;;9.62;100.00;95411.91;5051366;28;20580;-55
2023/01/04 00:59:18;;;;;;;10.57;7.17;;;;;;;9.63;100.00;95405.13;5051245;28;20718;-57
2023/01/04 01:01:43;;;;;;;11.27;7.33;;;;;;;9.60;100.00;95402.78;5051158;28;20604;-54
2023/01/04 01:04:12;;;;;;;13.17;7.77;;;;;;;9.57;100.00;95401.28;5051499;28;20235;-55
2023/01/04 01:06:37;;;;;;;10.47;7.10;;;;;;;9.55;100.00;95413.25;5051150;28;20233;-53
2023/01/04 01:09:03;;;;;;;13.00;6.97;;;;;;;9.58;100.00;95425.72;5050926;28;20606;-60
2023/01/04 01:11:29;;;;;;;11.73;7.07;;;;;;;9.56;100.00;95425.03;5051168;28;20239;-56
2023/01/04 01:13:56;;;;;;;12.23;7.43;;;;;;;9.60;100.00;95433.22;5050428;28;20284;-57
2023/01/04 01:16:23;;;;;;;10.37;6.00;;;;;;;9.61;100.00;95435.69;5048750;28;20268;-57
2023/01/04 01:18:49;;;;;;;10.87;7.20;;;;;;;9.51;100.00;95424.53;5048716;28;20189;-55
2023/01/04 01:21:18;;;;;;;17.37;11.73;;;;;;;9.57;100.00;95449.50;5048960;28;20201;-58
2023/01/04 01:23:44;;;;;;;19.67;12.53;;;;;;;9.15;100.00;95452.38;5048812;28;20197;-58
2023/01/04 01:26:15;;;;;;;12.13;9.10;;;;;;;9.01;100.00;95389.06;5049053;28;20225;-53
2023/01/04 01:28:41;;;;;;;17.83;10.27;;;;;;;9.03;100.00;95410.09;5051046;28;20590;-52
2023/01/04 01:31:09;;;;;;;16.00;10.27;;;;;;;9.09;100.00;95413.00;5050968;28;20270;-58
2023/01/04 01:33:39;;;;;;;12.73;9.40;;;;;;;9.07;100.00;95389.47;5050776;28;20239;-55
2023/01/04 01:36:06;;;;;;;16.73;9.47;;;;;;;9.10;100.00;95386.75;5050863;28;20239;-57
2023/01/04 01:38:31;;;;;;;12.87;7.60;;;;;;;9.21;100.00;95386.03;5050791;28;20197;-57
2023/01/04 01:40:57;;;;;;;11.67;7.97;;;;;;;9.25;100.00;95397.59;5050539;28;20271;-57
2023/01/04 01:43:57;;;;;;;11.90;7.87;;;;;;;9.26;100.00;95406.81;5050065;28;20197;-54
2023/01/04 01:46:34;;;;;;;12.10;7.83;;;;;;;9.24;100.00;95384.06;5050723;28;20196;-57
2023/01/04 01:49:09;;;;;;;11.37;7.27;;;;;;;9.23;100.00;95391.81;5050632;28;20228;-57
2023/01/04 01:51:34;;;;;;;11.53;7.87;;;;;;;9.29;100.00;95404.06;5050656;28;20280;-57
2023/01/04 01:54:08;;;;;;;11.20;7.90;;;;;;;9.32;100.00;95396.25;5050522;28;20229;-54
2023/01/04 01:56:36;;;;;;;11.60;7.37;;;;;;;9.30;100.00;95382.84;5050693;28;20705;-57
2023/01/04 01:59:03;;;;;;;11.30;8.40;;;;;;;9.24;100.00;95381.53;5050632;28;20284;-56
2023/01/04 02:01:29;;;;;;;12.97;9.40;;;;;;;9.35;100.00;95390.16;5050403;28;20232;-53
2023/01/04 02:03:55;;;;;;;10.17;7.77;;;;;;;9.12;100.00;95358.72;5050239;28;20201;-54
2023/01/04 02:06:27;;;;;;;11.23;8.03;;;;;;;9.15;100.00;95356.78;5050448;28;20221;-55
2023/01/04 02:08:54;;;;;;;11.10;8.17;;;;;;;9.17;100.00;95359.25;5050292;28;20263;-54
2023/01/04 02:11:19;;;;;;;11.20;8.13;;;;;;;9.23;100.00;95374.84;5050225;28;20244;-53
2023/01/04 02:16:35;;;;;;;10.67;7.43;;;;;;;9.18;100.00;95378.59;5069808;22;20753;-53
2023/01/04 02:19:25;;;;;;;12.83;8.97;;;;;;;9.13;100.00;95363.69;5070266;28;20192;-57
2023/01/04 02:22:23;;;;;;;13.93;8.90;;;;;;;9.14;100.00;95367.03;5070196;28;20205;-56
2023/01/04 02:25:19;;;;;;;12.90;9.27;;;;;;;9.04;100.00;95359.25;5070393;28;20282;-54
2023/01/04 02:28:02;;;;;;;12.57;7.87;;;;;;;9.04;100.00;95366.03;5070203;28;20248;-54
2023/01/04 02:30:43;;;;;;;11.47;8.30;;;;;;;8.99;100.00;95345.25;5070219;28;20228;-54
2023/01/04 02:33:27;;;;;;;9.77;7.83;;;;;;;8.96;100.00;95348.81;5077815;22;20251;-57
2023/01/04 02:36:04;;;;;;;12.50;8.27;;;;;;;8.99;100.00;95357.91;5070192;28;20220;-53
2023/01/04 02:38:44;;;;;;;13.40;8.70;;;;;;;8.92;100.00;95349.94;5072764;28;20704;-56
2023/01/04 02:41:47;;;;;;;14.60;9.33;;;;;;;8.93;100.00;95355.78;5073356;28;20262;-58
2023/01/04 02:47:05;;;;;;;13.33;9.10;;;;;;;8.82;100.00;95348.94;5073556;28;20270;-57
2023/01/04 02:52:14;;;;;;;19.30;9.50;;;;;;;8.73;100.00;95352.06;5073449;28;20654;-53
2023/01/04 02:54:42;;;;;;;13.60;9.07;;;;;;;8.67;100.00;95349.94;5073280;28;20225;-53
2023/01/04 02:57:47;;;;;;;16.57;9.50;;;;;;;8.62;100.00;95354.50;5073266;28;20180;-54
2023/01/04 03:00:33;;;;;;;17.60;9.70;;;;;;;8.65;100.00;95361.06;5073110;28;20196;-53
2023/01/04 03:06:16;;;;;;;15.60;10.07;;;;;;;8.54;100.00;95355.91;5073119;28;20267;-53
2023/01/04 03:09:01;;;;;;;17.53;10.20;;;;;;;8.48;100.00;95346.19;5073553;28;20670;-54
2023/01/04 03:14:25;;;;;;;16.00;9.90;;;;;;;8.46;100.00;95352.13;5072964;28;20224;-54
2023/01/04 03:16:53;;;;;;;14.83;9.70;;;;;;;8.41;100.00;95354.19;5073023;28;20188;-56
2023/01/04 03:20:05;;;;;;;15.23;10.50;;;;;;;8.29;100.00;95347.38;5072990;28;20736;-57
2023/01/04 03:36:06;;;;;;;12.73;9.17;;;;;;;8.27;100.00;95384.66;5072988;28;20325;-53
2023/01/04 03:50:40;;;;;;;18.40;10.83;;;;;;;8.11;100.00;95376.38;5071422;28;20701;-53
2023/01/04 03:53:06;;;;;;;15.00;10.17;;;;;;;8.13;100.00;95384.69;5072693;28;20185;-54
2023/01/04 03:55:35;;;;;;;12.73;8.67;;;;;;;8.05;100.00;95383.53;5072424;28;20212;-54
2023/01/04 03:58:01;;;;;;;14.80;9.17;;;;;;;8.00;100.00;95383.03;5072570;28;20260;-52
2023/01/04 04:00:27;;;;;;;13.37;9.43;;;;;;;7.96;100.00;95379.88;5072470;28;20286;-54
2023/01/04 04:02:52;;;;;;;15.47;9.70;;;;;;;7.98;100.00;95389.91;5072454;28;20184;-55
2023/01/04 04:08:24;;;;;;;15.33;10.17;;;;;;;7.98;100.00;95395.78;5072489;28;20803;-56
2023/01/04 04:10:50;;;;;;;17.87;9.20;;;;;;;7.94;100.00;95401.94;5072118;28;20258;-55
2023/01/04 04:13:15;;;;;;;16.40;9.33;;;;;;;7.98;100.00;95395.78;5072235;28;20188;-55
2023/01/04 04:15:41;;;;;;;14.80;9.00;;;;;;;7.96;100.00;95402.66;5054041;28;20808;-56
2023/01/04 04:18:07;;;;;;;16.20;9.50;;;;;;;7.86;100.00;95376.28;5072427;28;20193;-53
2023/01/04 04:20:33;;;;;;;17.13;10.00;;;;;;;7.98;100.00;95398.31;5072052;28;20234;-57
2023/01/04 04:22:58;;;;;;;19.10;10.70;;;;;;;8.01;100.00;95398.13;5072218;28;20663;-56
2023/01/04 04:25:24;;;;;;;13.53;9.17;;;;;;;8.11;100.00;95409.28;5071804;28;20223;-53
2023/01/04 04:27:49;;;;;;;17.20;10.37;;;;;;;8.10;100.00;95415.25;5071851;28;20205;-58
2023/01/04 04:30:14;;;;;;;15.47;10.20;;;;;;;8.02;100.00;95412.41;5071725;28;20266;-55
2023/01/04 04:32:41;;;;;;;12.20;8.67;;;;;;;7.97;100.00;95400.94;5071911;28;20203;-54
2023/01/04 04:35:07;;;;;;;16.93;10.43;;;;;;;8.12;100.00;95418.50;5079292;22;20225;-54
2023/01/04 04:37:33;;;;;;;16.50;9.77;;;;;;;8.04;100.00;95423.22;5053635;28;20255;-54
2023/01/04 04:39:59;;;;;;;16.20;9.13;;;;;;;8.04;100.00;95428.31;5071587;28;20266;-53
2023/01/04 04:42:25;;;;;;;14.40;9.43;;;;;;;8.10;100.00;95429.66;5071757;28;20181;-57
2023/01/04 04:44:50;;;;;;;15.83;10.00;;;;;;;8.05;100.00;95429.94;5071167;28;20690;-57
2023/01/04 04:47:16;;;;;;;17.80;9.40;;;;;;;7.95;100.00;95421.28;5071015;28;20258;-59
2023/01/04 04:49:41;;;;;;;15.57;10.07;;;;;;;7.97;100.00;95429.59;5071294;28;20265;-56
2023/01/04 04:52:07;;;;;;;13.90;9.77;;;;;;;7.97;100.00;95436.38;5071452;28;20185;-56
2023/01/04 04:54:32;;;;;;;13.63;8.77;;;;;;;7.88;100.00;95435.22;5053661;28;20213;-53
2023/01/04 04:56:58;;;;;;;16.90;10.20;;;;;;;7.97;100.00;95444.78;5053457;28;20558;-54
2023/01/04 04:59:23;;;;;;;16.10;10.50;;;;;;;7.97;100.00;95431.31;5071339;28;20702;-54
2023/01/04 05:01:48;;;;;;;16.83;8.90;;;;;;;8.06;100.00;95438.34;5069937;28;20658;-54
2023/01/04 05:04:15;;;;;;;15.57;9.83;;;;;;;8.04;100.00;95440.97;5071318;28;20232;-57
2023/01/04 05:06:45;;;;;;;15.03;9.67;;;;;;;8.03;100.00;95441.88;5071214;28;20184;-54
2023/01/04 05:09:12;;;;;;;14.40;9.50;;;;;;;8.04;100.00;95440.97;5071372;28;20624;-53
2023/01/04 05:14:22;;;;;;;19.57;10.50;;;;;;;7.95;100.00;95431.41;5071258;28;20215;-56
2023/01/04 05:16:47;;;;;;;15.03;10.30;;;;;;;8.04;100.00;95442.69;5052853;28;20189;-57
2023/01/04 05:19:13;;;;;;;18.03;9.77;;;;;;;7.96;100.00;95443.16;5052289;28;20311;-59
2023/01/04 05:21:39;;;;;;;16.97;11.00;;;;;;;7.98;100.00;95425.38;5070581;28;20272;-54
2023/01/04 05:24:06;;;;;;;15.20;10.83;;;;;;;7.87;100.00;95443.75;5070423;28;20686;-57
2023/01/04 05:26:31;;;;;;;18.90;10.13;;;;;;;7.87;100.00;95442.91;5070060;28;20188;-54
2023/01/04 05:28:57;;;;;;;19.60;10.77;;;;;;;7.79;100.00;95443.41;5070982;28;20249;-54
2023/01/04 05:31:23;;;;;;;18.47;10.77;;;;;;;7.91;100.00;95452.75;5070987;28;20195;-57
2023/01/04 05:33:48;;;;;;;16.70;10.43;;;;;;;7.86;100.00;95452.22;5070938;28;20719;-56
2023/01/04 05:36:14;;;;;;;16.33;10.37;;;;;;;7.87;100.00;95455.56;5070794;28;20682;-58
2023/01/04 05:38:39;;;;;;;13.23;9.47;;;;;;;7.85;100.00;95450.63;5052842;28;20192;-57
2023/01/04 05:42:23;;;;;;;21.77;10.93;;;;;;;7.96;100.00;95463.41;5070834;28;20686;-57
2023/01/04 05:43:51;;;;;;;18.27;11.00;;;;;;;7.95;100.00;95471.94;5070625;28;20196;-57
2023/01/04 05:46:16;;;;;;;15.00;10.00;;;;;;;7.99;100.00;95464.94;5070460;28;20216;-58
2023/01/04 05:48:42;;;;;;;19.53;10.40;;;;;;;7.99;100.00;95462.41;5052793;28;20682;-56
2023/01/04 05:51:07;;;;;;;14.67;9.90;;;;;;;7.99;100.00;95470.81;5070610;28;20208;-54
2023/01/04 05:53:33;;;;;;;15.93;10.10;;;;;;;7.92;100.00;95469.56;5070595;28;20201;-54
2023/01/04 05:55:58;;;;;;;16.33;10.43;;;;;;;7.97;100.00;95480.25;5071002;28;20670;-57
2023/01/04 05:58:24;;;;;;;18.67;10.53;;;;;;;7.95;100.00;95474.47;5070789;28;20600;-53
2023/01/04 06:00:49;;;;;;;16.93;9.87;;;;;;;8.01;100.00;95486.75;5070959;28;20205;-57
2023/01/04 06:03:15;;;;;;;17.87;10.77;;;;;;;7.98;100.00;95481.06;5070515;28;20216;-54
2023/01/04 06:05:40;;;;;;;19.17;10.10;;;;;;;8.04;100.00;95476.41;5070357;28;20594;-53
2023/01/04 06:08:06;;;;;;;14.93;9.93;;;;;;;8.03;100.00;95477.34;5070450;28;20217;-58
2023/01/04 06:10:32;;;;;;;17.67;9.87;;;;;;;7.95;100.00;95477.00;5070116;28;20231;-56
2023/01/04 06:12:57;;;;;;;15.90;9.47;;;;;;;7.96;100.00;95483.66;5072173;28;20193;-57
2023/01/04 06:15:23;;;;;;;16.17;9.77;;;;;;;7.98;100.00;95476.78;5073609;28;20209;-57
2023/01/04 06:17:48;;;;;;;14.63;10.20;;;;;;;7.99;100.00;95483.50;5073275;28;20692;-56
2023/01/04 06:20:13;;;;;;;14.10;10.17;;;;;;;8.00;100.00;95479.25;5073542;28;20686;-57
2023/01/04 06:22:40;;;;;;;14.70;9.67;;;;;;;7.98;100.00;95491.97;5073730;28;20185;-56
2023/01/04 06:25:07;;;;;;;15.00;9.97;;;;;;;8.01;100.00;95493.50;5073728;28;20224;-54
2023/01/04 06:27:33;;;;;;;14.73;9.63;;;;;;;8.20;100.00;95494.81;5073801;28;20212;-53
2023/01/04 06:29:58;;;;;;;16.20;10.13;;;;;;;8.07;100.00;95506.63;5073741;28;20374;-57
2023/01/04 06:32:23;;;;;;;17.63;10.10;;;;;;;7.95;100.00;95487.13;5073517;28;20577;-54
2023/01/04 06:34:49;;;;;;;18.03;10.07;;;;;;;7.96;100.00;95503.91;5073523;28;20217;-54
2023/01/04 06:37:14;;;;;;;15.03;9.60;;;;;;;7.96;100.00;95510.72;5073631;28;20180;-53
2023/01/04 06:39:40;;;;;;;15.60;9.73;;;;;;;7.96;100.00;95508.97;5073555;28;20260;-54
2023/01/04 06:42:43;;;;;;;17.93;10.17;;;;;;;8.01;100.00;95503.63;5073564;28;20223;-53
2023/01/04 06:44:50;;;;;;;17.77;10.23;;;;;;;8.08;100.00;95507.44;5073484;28;20691;-57
2023/01/04 06:47:23;;;;;;;16.93;10.40;;;;;;;8.05;100.00;95513.50;5073314;28;20187;-57
2023/01/04 06:49:48;;;;;;;17.53;10.33;;;;;;;8.01;100.00;95508.72;5073530;28;20216;-55
2023/01/04 06:52:13;;;;;;;14.80;8.90;;;;;;;8.07;100.00;95519.28;5073576;28;20268;-57
2023/01/04 06:54:39;;;;;;;19.23;10.47;;;;;;;7.97;100.00;95513.16;5073365;28;20209;-54
2023/01/04 06:57:04;;;;;;;15.30;9.33;;;;;;;8.10;100.00;95521.59;5073576;28;20199;-54
2023/01/04 06:59:30;;;;;;;17.07;10.20;;;;;;;8.04;100.00;95509.31;5073305;28;20262;-53
2023/01/04 07:01:55;;;;;;;17.87;10.53;;;;;;;8.13;100.00;95518.09;5073077;28;20180;-56
2023/01/04 07:04:20;;;;;;;16.40;9.97;;;;;;;8.14;100.00;95522.25;5072251;28;20223;-58
2023/01/04 07:06:46;;;;;;;16.77;10.67;;;;;;;8.22;100.00;95533.53;5071750;28;20181;-57
2023/01/04 07:09:11;;;;;;;16.30;8.50;;;;;;;8.13;100.00;95529.03;5071558;28;20247;-56
2023/01/04 07:11:37;;;;;;;16.27;10.20;;;;;;;8.28;100.00;95545.84;5071619;28;20185;-57
2023/01/04 07:14:02;;;;;;;12.97;9.33;;;;;;;8.35;100.00;95558.94;5071795;28;20188;-57
2023/01/04 07:16:27;;;;;;;14.47;9.47;;;;;;;8.39;100.00;95562.91;5072709;28;20661;-57
2023/01/04 07:18:53;;;;;;;15.70;9.23;;;;;;;8.35;100.00;95567.38;5072958;28;20225;-54
2023/01/04 07:21:18;;;;;;;17.80;9.60;;;;;;;8.40;100.00;95567.88;5072656;28;20206;-54
2023/01/04 07:23:43;;;;;;;16.37;8.67;;;;;;;8.58;100.00;95586.22;5071758;28;20192;-53
2023/01/04 07:26:09;;;;;;;16.57;10.20;;;;;;;8.70;100.00;95593.06;5054847;28;20291;-53
2023/01/04 07:31:24;;;;;;;13.13;8.63;;;;;;;8.82;100.00;95607.50;5072819;28;20212;-56
2023/01/04 07:33:50;;;;;;;13.90;8.70;;;;;;;8.93;100.00;95615.25;5054519;28;20181;-57
2023/01/04 07:36:15;;;;;;;14.90;9.67;;;;;;;8.95;100.00;95610.88;5072626;28;20262;-58
2023/01/04 07:38:42;;;;;;;13.77;8.93;;;;;;;9.03;100.00;95607.91;5072815;28;20185;-54
2023/01/04 07:41:08;;;;;;;12.33;8.27;;;;;;;8.95;100.00;95613.44;5054582;28;20212;-54
2023/01/04 07:43:33;;;;;;;15.47;8.50;;;;;;;8.87;100.00;95595.34;5072526;28;20272;-56
2023/01/04 07:45:59;;;;;;;14.53;9.23;;;;;;;9.09;100.00;95610.03;5072293;28;20208;-57
2023/01/04 07:48:24;;;;;;;13.50;8.47;;;;;;;9.56;100.00;95656.00;5072297;28;20205;-57
2023/01/04 07:50:49;;;;;;;16.17;9.10;;;;;;;9.48;100.00;95653.16;5072586;28;20588;-58
2023/01/04 07:53:15;;;;;;;16.87;9.77;;;;;;;9.35;100.00;95647.25;5072468;28;20188;-58
2023/01/04 07:55:40;;;;;;;15.10;8.53;;;;;;;9.29;100.00;95627.34;5072585;28;20208;-55
2023/01/04 07:58:06;;;;;;;15.53;9.33;;;;;;;9.26;100.00;95630.88;5072495;28;20181;-56
2023/01/04 08:00:31;;;;;;;14.20;8.77;;;;;;;9.22;100.00;95634.53;5072393;28;20219;-57
2023/01/04 08:02:56;;;;;;;12.90;9.10;;;;;;;9.11;100.00;95603.16;5072264;28;20212;-55
2023/01/04 08:05:23;;;;;;;13.60;8.43;;;;;;;9.07;100.00;95622.78;5072173;28;20288;-58
2023/01/04 08:07:49;;;;;;;14.67;9.70;;;;;;;8.99;100.00;95588.69;5072001;28;20238;-56
2023/01/04 08:10:14;;;;;;;20.13;10.20;;;;;;;9.05;100.00;95599.25;5072303;28;20208;-56
2023/01/04 08:12:40;;;;;;;13.93;9.30;;;;;;;9.26;100.00;95619.91;5054154;28;20189;-57
2023/01/04 08:15:06;;;;;;;16.50;9.80;;;;;;;9.46;100.00;95639.75;5072380;28;20286;-58
2023/01/04 08:17:31;;;;;;;16.17;8.80;;;;;;;9.61;100.00;95659.06;5071819;28;20197;-57
2023/01/04 08:19:56;;;;;;;15.97;9.03;;;;;;;9.72;100.00;95676.94;5053906;28;20247;-54
2023/01/04 08:22:22;;;;;;;17.97;8.97;;;;;;;10.23;100.00;95703.22;5071824;28;20563;-56
2023/01/04 08:24:47;;;;;;;11.47;8.03;;;;;;;9.98;100.00;95708.25;5071800;28;20208;-57
2023/01/04 08:27:12;;;;;;;16.30;8.87;;;;;;;10.18;100.00;95705.25;5071703;28;20275;-58
2023/01/04 08:29:38;;;;;;;11.63;8.00;;;;;;;9.99;100.00;95685.31;5071682;28;20208;-57
2023/01/04 08:32:03;;;;;;;11.20;8.23;;;;;;;9.60;100.00;95666.75;5071825;28;20195;-58
2023/01/04 08:34:30;;;;;;;11.50;8.30;;;;;;;9.30;100.00;95622.16;5071876;28;20212;-54
2023/01/04 08:36:55;;;;;;;14.47;8.27;;;;;;;9.19;100.00;95616.94;5053647;28;20196;-55
2023/01/04 08:39:21;;;;;;;14.23;8.70;;;;;;;9.12;100.00;95599.69;5071772;28;20690;-56
2023/01/04 08:41:49;;;;;;;14.73;9.07;;;;;;;8.96;100.00;95574.50;5071704;28;20678;-56
2023/01/04 08:44:24;;;;;;;14.67;10.07;;;;;;;8.95;100.00;95597.38;5071561;28;20649;-56
2023/01/04 08:46:51;;;;;;;14.53;8.57;;;;;;;8.64;100.00;95564.75;5053521;28;20672;-54
2023/01/04 08:49:18;;;;;;;13.00;8.87;;;;;;;8.61;100.00;95568.28;5071181;28;20221;-55
2023/01/04 08:51:44;;;;;;;15.00;9.23;;;;;;;8.96;100.00;95574.50;5071553;28;20199;-55
2023/01/04 08:54:10;;;;;;;14.00;9.40;;;;;;;8.73;100.00;95571.75;5071242;28;20193;-54
2023/01/04 08:56:35;;;;;;;16.50;9.83;;;;;;;8.46;100.00;95554.84;5071226;28;20173;-54
2023/01/04 08:59:01;;;;;;;13.97;9.20;;;;;;;8.61;100.00;95567.47;5071126;28;20184;-52
2023/01/04 09:01:26;;;;;;;17.23;8.83;;;;;;;8.52;100.00;95555.38;5071274;28;20191;-54
2023/01/04 09:03:54;;;;;;;18.13;9.53;;;;;;;8.50;100.00;95558.00;5071242;28;20183;-55
2023/01/04 09:06:19;;;;;;;15.70;9.90;;;;;;;8.44;100.00;95554.13;5071134;28;20204;-54
2023/01/04 09:08:45;;;;;;;14.33;9.30;;;;;;;8.29;100.00;95532.28;5070953;28;20293;-54
2023/01/04 09:11:14;;;;;;;13.93;9.13;;;;;;;8.25;100.00;95527.50;5070857;28;20211;-54
2023/01/04 09:13:40;;;;;;;16.93;10.70;;;;;;;8.31;100.00;95524.59;5070943;28;20659;-53
2023/01/04 09:16:09;;;;;;;21.57;10.67;;;;;;;8.23;100.00;95527.56;5070826;28;20268;-53
2023/01/04 09:18:35;;;;;;;18.40;10.37;;;;;;;8.13;100.00;95507.97;5071165;28;20227;-55
2023/01/04 09:21:05;;;;;;;15.53;10.80;;;;;;;8.16;100.00;95531.38;5071139;28;20718;-54
2023/01/04 09:23:32;;;;;;;15.83;9.90;;;;;;;8.09;100.00;95519.19;5071038;28;20176;-55
2023/01/04 09:25:58;;;;;;;16.57;10.30;;;;;;;8.24;100.00;95534.25;5071028;28;20220;-54
2023/01/04 09:28:24;;;;;;;19.90;10.80;;;;;;;8.35;100.00;95542.03;5070765;28;20703;-53
2023/01/04 09:30:49;;;;;;;13.77;9.03;;;;;;;8.13;100.00;95546.75;5070810;28;20243;-53
2023/01/04 09:33:14;;;;;;;16.03;10.17;;;;;;;8.10;100.00;95549.47;5070706;28;20259;-54
2023/01/04 09:35:40;;;;;;;14.33;9.20;;;;;;;8.11;100.00;95540.16;5070487;28;20706;-54
2023/01/04 09:38:05;;;;;;;17.50;10.20;;;;;;;8.06;100.00;95535.38;5070787;28;20309;-53
2023/01/04 09:40:40;;;;;;;14.10;8.87;;;;;;;8.16;100.00;95544.03;5070932;28;20633;-54
2023/01/04 09:43:13;;;;;;;17.07;9.77;;;;;;;7.99;100.00;95523.19;5070759;28;20237;-52
2023/01/04 09:45:40;;;;;;;15.47;9.93;;;;;;;8.21;100.00;95556.41;5070816;28;20220;-54
2023/01/04 09:48:12;;;;;;;13.90;8.40;;;;;;;8.08;100.00;95570.75;5072767;28;20226;-55
2023/01/04 09:50:50;;;;;;;14.50;9.07;;;;;;;8.30;100.00;95589.63;5074488;28;20212;-57
2023/01/04 09:53:36;;;;;;;13.00;8.97;;;;;;;8.30;100.00;95581.22;5074060;28;20203;-54
2023/01/04 09:56:12;;;;;;;13.80;8.27;;;;;;;8.38;100.00;95584.09;5074273;28;20209;-56
2023/01/04 09:58:40;;;;;;;12.10;8.40;;;;;;;8.46;100.00;95580.19;5074201;28;20279;-55
2023/01/04 10:01:15;;;;;;;14.93;9.03;;;;;;;8.68;100.00;95591.53;5073804;28;20232;-55
2023/01/04 10:04:06;;;;;;;12.63;7.87;;;;;;;8.57;100.00;95596.44;5074006;28;20226;-56
2023/01/04 10:06:33;;;;;;;13.70;9.00;;;;;;;8.73;100.00;95607.25;5074167;28;20575;-56
2023/01/04 10:09:02;;;;;;;14.87;8.97;;;;;;;8.61;100.00;95620.69;5074081;28;20226;-56
2023/01/04 10:11:40;;;;;;;17.53;8.83;;;;;;;8.55;100.00;95590.66;5073903;28;20188;-57
2023/01/04 10:14:16;;;;;;;13.23;8.67;;;;;;;8.40;100.00;95589.91;5074077;28;20203;-54
2023/01/04 10:17:08;;;;;;;15.30;8.93;;;;;;;8.28;100.00;95575.44;5073771;28;20200;-54
2023/01/04 10:19:54;;;;;;;16.97;9.73;;;;;;;8.22;100.00;95555.53;5073992;28;20698;-53
2023/01/04 10:22:22;;;;;;;15.97;9.67;;;;;;;8.28;100.00;95553.44;5073617;28;20188;-55
2023/01/04 10:25:31;;;;;;;14.43;9.60;;;;;;;8.35;100.00;95556.41;5073915;28;20307;-58
2023/01/04 10:28:09;;;;;;;17.03;9.23;;;;;;;8.58;100.00;95576.09;4972797;28;20332;-58
2023/01/04 10:30:42;;;;;;;13.47;8.50;;;;;;;8.79;100.00;95609.41;4972814;28;20212;-56
2023/01/04 10:33:10;;;;;;;14.50;8.47;;;;;;;8.82;100.00;95609.22;5035852;28;20306;-59
2023/01/04 10:35:36;;;;;;;13.83;8.10;;;;;;;8.57;100.00;95586.31;5073560;28;20261;-53
2023/01/04 10:38:09;;;;;;;13.87;8.97;;;;;;;8.64;100.00;95577.44;5073424;28;20200;-54
2023/01/04 10:40:38;;;;;;;13.40;8.70;;;;;;;8.63;100.00;95565.66;5072958;28;20212;-55
2023/01/04 10:43:41;;;;;;;12.90;8.73;;;;;;;8.39;100.00;95557.84;5073213;28;20192;-54
2023/01/04 10:46:17;;;;;;;14.60;9.27;;;;;;;8.45;100.00;95542.28;5073084;28;20217;-52
2023/01/04 10:48:53;;;;;;;19.30;9.60;;;;;;;8.34;100.00;95539.59;5073340;28;20216;-55
2023/01/04 10:51:33;;;;;;;14.67;9.53;;;;;;;8.33;100.00;95522.75;5073610;28;20197;-58
2023/01/04 10:54:15;;;;;;;16.50;9.30;;;;;;;8.45;100.00;95544.81;5073336;28;20700;-53
2023/01/04 10:57:06;;;;;;;15.37;9.30;;;;;;;8.48;100.00;95541.28;5073316;28;20657;-54
2023/01/04 10:59:46;;;;;;;13.03;8.80;;;;;;;8.43;100.00;95529.72;5073271;28;20220;-55
2023/01/04 11:02:37;;;;;;;12.77;8.30;;;;;;;8.40;100.00;95529.09;5073258;28;20280;-54
2023/01/04 11:05:03;;;;;;;15.43;9.07;;;;;;;8.46;100.00;95519.38;5073214;28;20215;-57
2023/01/04 11:07:57;;;;;;;13.63;8.43;;;;;;;8.51;100.00;95539.34;5073092;28;20188;-57
2023/01/04 11:10:30;;;;;;;14.90;8.13;;;;;;;8.67;100.00;95551.88;5064387;28;20225;-53
2023/01/04 11:12:56;;;;;;;16.20;8.70;;;;;;;8.73;100.00;95562.44;5072749;28;20185;-55
2023/01/04 11:15:21;;;;;;;15.83;9.23;;;;;;;9.10;100.00;95574.44;5071569;28;20705;-56
2023/01/04 11:17:49;;;;;;;13.50;8.57;;;;;;;9.01;100.00;95586.84;5071787;28;20189;-56
2023/01/04 11:20:15;;;;;;;13.93;8.70;;;;;;;8.99;100.00;95560.78;5071539;28;20223;-57
2023/01/04 11:22:55;;;;;;;13.43;8.83;;;;;;;8.97;100.00;95571.03;5071713;28;20267;-55
2023/01/04 11:25:22;;;;;;;10.03;6.77;;;;;;;8.90;100.00;95566.47;5072376;28;20600;-57
2023/01/04 11:28:14;;;;;;;13.53;8.23;;;;;;;9.01;100.00;95572.47;5072685;28;20269;-54
2023/01/04 11:31:15;;;;;;;11.93;7.73;;;;;;;8.87;100.00;95557.31;5071900;28;20266;-57
2023/01/04 11:33:50;;;;;;;12.03;7.47;;;;;;;8.96;100.00;95566.88;5072648;28;20196;-56
2023/01/04 11:36:34;;;;;;;11.57;8.00;;;;;;;8.78;100.00;95536.81;5072422;28;20228;-58
2023/01/04 11:38:59;;;;;;;12.67;8.40;;;;;;;8.79;100.00;95540.97;5072496;28;20214;-53
2023/01/04 11:41:26;;;;;;;13.03;8.43;;;;;;;8.93;100.00;95543.44;5072370;28;20189;-53
2023/01/04 11:44:17;;;;;;;12.17;7.57;;;;;;;8.90;100.00;95552.06;5072069;28;20289;-53
2023/01/04 11:46:42;;;;;;;12.80;7.80;;;;;;;8.90;100.00;95543.63;5072456;28;20185;-54
2023/01/04 11:49:18;;;;;;;12.90;7.57;;;;;;;9.03;100.00;95540.22;5072234;28;20211;-54
2023/01/04 11:51:44;;;;;;;11.37;7.93;;;;;;;9.00;100.00;95544.66;5072280;28;20331;-55
2023/01/04 11:54:18;;;;;;;14.53;8.53;;;;;;;9.08;100.00;95542.47;5054065;28;20608;-55
2023/01/04 11:57:07;;;;;;;15.37;8.17;;;;;;;9.02;100.00;95532.72;5070562;28;20180;-54
2023/01/04 11:59:33;;;;;;;11.50;7.77;;;;;;;9.02;100.00;95536.06;5053582;28;20217;-55
2023/01/04 12:02:19;;;;;;;11.87;7.63;;;;;;;8.64;100.00;95504.75;5071587;28;20184;-53
2023/01/04 12:04:44;;;;;;;12.70;8.50;;;;;;;8.63;100.00;95492.97;5071681;28;20215;-55
2023/01/04 12:07:30;;;;;;;13.17;7.83;;;;;;;8.63;100.00;95484.53;5054207;28;20193;-54
2023/01/04 12:09:59;;;;;;;14.93;7.93;;;;;;;9.08;100.00;95512.84;5071467;28;20219;-54
2023/01/04 12:12:29;;;;;;;12.60;8.40;;;;;;;9.25;100.00;95545.50;5071969;28;20181;-54
2023/01/04 12:14:56;;;;;;;11.63;7.60;;;;;;;9.19;100.00;95538.31;5070395;28;20213;-55
2023/01/04 12:17:34;;;;;;;12.17;7.50;;;;;;;9.20;100.00;95536.59;5071640;28;20205;-53
2023/01/04 12:20:04;;;;;;;14.67;8.80;;;;;;;9.42;100.00;95567.25;5072067;28;20636;-54
2023/01/04 12:22:38;;;;;;;13.10;8.37;;;;;;;9.57;100.00;95575.59;5071830;28;20646;-55
2023/01/04 12:25:18;;;;;;;11.23;7.60;;;;;;;9.66;100.00;95575.78;5070712;28;20239;-54